Weather observations for the past three days for
MOUNT WILSON
Metric (Imperial)
Date Time (pdt) Wind (kph) Vis. (km) Weather Sky Cond. Temperature (ºC) Relative Humidity Wind Chill (°C) Heat Index (°C) Pressure Precipitation (cm)
Air Dwpt 6 hour altimeter (cm) sea level (mb) 1 hr 3 hr 6 hr
Max. Min.
10 06:20 E 11 G 13 0.00 NULL NULL 22 -3 19% 0 0.0
10 05:20 E 11 G 13 0.00 NULL NULL 21 0 25% 0 0.0
10 04:20 E 9 G 9 0.00 NULL NULL 22 -14 8% 0 0.0
10 03:20 NE 2 0.00 NULL NULL 21 -26 3% 0 0.0
10 02:20 SW 2 0.00 NULL NULL 20 -30 2% 0 0.0
10 01:20 W 2 0.00 NULL NULL 20 -26 3% 0 0.0
10 00:20 S 4 0.00 NULL NULL 19 -16 8% 0 0.0
09 23:00 E 11 G 13 0.00 NULL NULL 17 7 52% 0 0.0
09 21:20 SE 9 G 13 0.00 NULL NULL 17 6 49% 0 0.0
09 20:10 E 11 G 13 0.00 NULL NULL 17 5 45% 0 0.0
09 19:15 NE 2 0.00 NULL NULL 18 9 56% 0 0.0
09 19:05 Calm 0.00 NULL NULL 20 9 49% 0 0.0
09 17:20 SW 4 0.00 NULL NULL 21 13 60% 0 0.0
09 17:00 W 2 0.00 NULL NULL 20 13 64% 0 0.0
09 16:05 W 4 0.00 NULL NULL 22 13 57% 0 0.0
09 14:20 W 4 0.00 NULL NULL 22 14 61% 0 0.0
09 14:05 SW 4 0.00 NULL NULL 22 13 57% 0 0.0
09 13:05 SW 2 0.00 NULL NULL 23 10 44% 0 0.0
09 12:05 Calm 0.00 NULL NULL 21 10 50% 0 0.0
09 10:20 W 2 0.00 NULL NULL 20 7 43% 0 0.0
09 09:20 NW 2 0.00 NULL NULL 19 4 37% 0 0.0
09 09:05 Calm 0.00 NULL NULL 19 5 40% 0 0.0
09 08:10 W 2 0.00 NULL NULL 17 2 37% 0 0.0
09 07:20 N 2 0.00 NULL NULL 17 2 37% 0 0.0
09 06:10 N 4 0.00 NULL NULL 16 0 34% 0 0.0
09 05:20 N 2 0.00 NULL NULL 16 1 36% 0 0.0
09 04:20 N 4 0.00 NULL NULL 16 2 39% 0 0.0
09 03:20 W 6 G 9 0.00 NULL NULL 16 1 36% 0 0.0
09 02:20 W 4 0.00 NULL NULL 17 -6 20% 0 0.0
09 01:20 W 7 G 13 0.00 NULL NULL 16 -5 23% 0 0.0
09 00:20 N 4 0.00 NULL NULL 16 1 36% 0 0.0
08 23:20 N 2 0.00 NULL NULL 17 2 37% 0 0.0
08 22:20 N 7 G 9 0.00 NULL NULL 17 2 37% 0 0.0
08 21:20 N 4 0.00 NULL NULL 17 0 32% 0 0.0
08 20:20 N 4 0.00 NULL NULL 17 4 42% 0 0.0
08 19:20 N 2 0.00 NULL NULL 18 11 64% 0 0.0
08 18:20 SW 4 0.00 NULL NULL 20 13 64% 0 0.0
08 16:20 NW 2 0.00 NULL NULL 21 13 60% 0 0.0
08 15:20 SW 4 G 9 0.00 NULL NULL 21 12 57% 0 0.0
08 14:20 SW 4 0.00 NULL NULL 22 12 53% 0 0.0
08 13:20 SW 4 0.00 NULL NULL 22 11 50% 0 0.0
08 12:20 SW 4 0.00 NULL NULL 21 8 43% 0 0.0
08 11:20 W 2 0.00 NULL NULL 22 5 33% 0 0.0
08 10:20 Calm 0.00 NULL NULL 21 2 29% 0 0.0
08 09:20 W 6 G 9 0.00 NULL NULL 19 -2 24% 0 0.0
08 08:20 NW 9 G 20 0.00 NULL NULL 18 -2 26% 0 0.0
08 07:20 NW 7 0.00 NULL NULL 18 -3 24% 0 0.0
08 06:20 NW 7 0.00 NULL NULL 18 -4 22% 0 0.0
08 05:20 NW 6 G 13 0.00 NULL NULL 17 -3 25% 0 0.0
08 04:20 W 6 G 11 0.00 NULL NULL 18 -3 24% 0 0.0
08 03:20 NW 6 0.00 NULL NULL 18 -3 24% 0 0.0
08 02:20 NW 9 0.00 NULL NULL 18 -3 24% 0 0.0
08 01:15 N 6 G 11 0.00 NULL NULL 18 -3 24% 0 0.0
08 00:20 N 4 0.00 NULL NULL 17 -1 30% 0 0.0
07 23:20 N 4 0.00 NULL NULL 16 1 36% 0 0.0
07 22:20 NE 4 0.00 NULL NULL 17 1 34% 0 0.0
07 21:20 N 6 G 13 0.00 NULL NULL 18 1 32% 0 0.0
07 20:20 NW 9 0.00 NULL NULL 18 3 37% 0 0.0
07 19:20 NW 11 G 28 0.00 NULL NULL 19 3 35% 0 0.0
07 18:20 W 7 G 19 0.00 NULL NULL 20 2 30% 0 0.0
07 17:20 W 19 G 28 0.00 NULL NULL 21 2 29% 0 0.0
07 16:20 SW 17 G 24 0.00 NULL NULL 21 5 35% 0 0.0
07 15:20 W 17 G 26 0.00 NULL NULL 22 4 31% 0 0.0
07 14:20 SW 15 G 30 0.00 NULL NULL 21 6 38% 0 0.0
07 13:20 SW 15 G 22 0.00 NULL NULL 22 4 31% 0 0.0
07 12:20 SW 9 0.00 NULL NULL 22 4 31% 0 0.0
07 11:20 SW 7 G 13 0.00 NULL NULL 21 3 31% 0 0.0
07 10:15 SW 6 G 9 0.00 NULL NULL 20 3 33% 0 0.0
07 09:20 W 2 0.00 NULL NULL 19 1 30% 0 0.0
07 08:20 SW 2 0.00 NULL NULL 18 0 30% 0 0.0
Date Time (pdt) Wind (kph) Vis. (km) Weather Sky Cond. Air Dwpt Max. Min. Relative Humidity Wind Chill (°C) Heat Index (°C) altimeter (cm) sea level (mb) 1 hr 3 hr 6 hr
6 hour
Temperature (ºC) Pressure Precipitation (cm)